UNO weather

West Plains Municipal Airport
West Plains, Missouri, United States

Public forecast

Using degrees Fahrenheit for public forecast. Weather courtesy of forecast.io.

METAR (pilot weather report)

Retrieved 2019/09/16 22:53 UTC (21 minutes ago):

KUNO 162253Z AUTO 12004KT 9SM CLR 32/18 A3008 RMK AO2 SLP169 T03170178

TAF (pilot weather forecast)

Closest forecast is Ozark Regional Airport, 41.0 nm (76.0 km) SW. Retrieved 2019/09/16 18:33 UTC (5 hours ago):

TAF KBPK 161730Z 1618/1718 14004KT P6SM FEW040 FM170030 00000KT P6SM SKC FM171430 15004KT P6SM SKC